Ogdensburg, New Jersey
Current Conditions -  °F | °C
As of 8:53 AM on Wednesday 26 Nov 2014 (Local Time) from KFWN Reporting Station
Light Snow Light Snow  
Wind Chill: 28°   Ceiling: 1900
Heat Index: 35°   Visibility: 2mi
Dew Point: 32°   Wind: 9mph
Humidity: 89%   Direction: 30°NNE
Pressure: 30.12"   Gusts: NA
Location:  41.08°N, 74.59°W
Report Text: KFWN 261353Z AUTO 03008KT 2SM -SN BR OVC019 02/00 A3012 RMK AO2 RAE36SNB36 SLP204 P0003 T00170000
Loading
Personal Weather Stations






























Interactive Weather Map New forecast layout! Learn more

10-Day Weather Forecast

Advertisements
Track Severe Weather on mobile